BAW795 LJLJ-EGLL
Flight info
| Callsign | BAW795 |
|---|---|
| Flight time | N/A |
| Altitude | 36000 |
| Route | LUPIX2E LUPIX DCT EBITI DCT INGID DCT SIMBA DCT MAMOR DCT INBED DCT BOMBI DCT ADKUV DCT LENDO DCT SOGRI DCT DENUT L608 LOGAN |
| Aircraft | A320/M-SDE3FGHIRWY/LB1 |
Departure
| Time | N/A |
|---|---|
| Airport | Ljubljana Jože Pučnik Airport (LJLJ) |
Arrival
| Time | 2026-04-30 18:30 |
|---|---|
| Airport | London Heathrow Airport (EGLL) |
| Time | Latitude | Longitude | Altitude | Speed | Heading |
|---|---|---|---|---|---|
| 2026-04-30 17:39 | 50.58357 | 6.47102 | 36303 ft | 459 kts | 290° |
| 2026-04-30 17:42 | 50.66972 | 5.98512 | 36307 ft | 463 kts | 284° |
| 2026-04-30 17:43 | 50.70641 | 5.73849 | 36310 ft | 462 kts | 283° |
| 2026-04-30 17:44 | 50.74971 | 5.44219 | 36286 ft | 462 kts | 283° |
| 2026-04-30 17:47 | 50.82073 | 5.00004 | 36282 ft | 462 kts | 297° |
| 2026-04-30 17:48 | 50.92140 | 4.68179 | 36275 ft | 464 kts | 296° |
| 2026-04-30 17:50 | 51.03579 | 4.31428 | 36281 ft | 464 kts | 296° |
| 2026-04-30 17:52 | 51.12094 | 4.03731 | 36271 ft | 465 kts | 296° |
| 2026-04-30 17:54 | 51.24935 | 3.62213 | 36266 ft | 464 kts | 301° |
| 2026-04-30 17:56 | 51.37090 | 3.25968 | 36260 ft | 463 kts | 290° |
| 2026-04-30 17:58 | 51.43891 | 2.97061 | 36266 ft | 462 kts | 290° |
| 2026-04-30 18:00 | 51.52868 | 2.58436 | 36258 ft | 461 kts | 289° |
| 2026-04-30 18:00 | 51.56229 | 2.43787 | 34390 ft | 472 kts | 289° |
| 2026-04-30 18:01 | 51.58489 | 2.33889 | 33164 ft | 466 kts | 289° |
| 2026-04-30 18:02 | 51.61785 | 2.19385 | 31558 ft | 455 kts | 288° |
| 2026-04-30 18:02 | 51.64999 | 2.05163 | 29920 ft | 446 kts | 288° |
| 2026-04-30 18:03 | 51.68093 | 1.91337 | 28386 ft | 433 kts | 288° |
| 2026-04-30 18:04 | 51.71120 | 1.77709 | 26909 ft | 424 kts | 288° |
| 2026-04-30 18:05 | 51.74421 | 1.59832 | 25099 ft | 411 kts | 271° |
| 2026-04-30 18:06 | 51.73475 | 1.41312 | 22538 ft | 415 kts | 261° |
| 2026-04-30 18:07 | 51.72322 | 1.23440 | 20108 ft | 378 kts | 261° |
| 2026-04-30 18:08 | 51.71493 | 1.11100 | 18450 ft | 365 kts | 261° |
| 2026-04-30 18:09 | 51.70388 | 0.95078 | 16235 ft | 354 kts | 261° |
| 2026-04-30 18:10 | 51.69301 | 0.79342 | 14170 ft | 347 kts | 260° |
| 2026-04-30 18:11 | 51.68214 | 0.64154 | 12174 ft | 337 kts | 260° |
| 2026-04-30 18:11 | 51.67417 | 0.53073 | 11028 ft | 315 kts | 259° |
| 2026-04-30 18:12 | 51.66683 | 0.42947 | 10145 ft | 302 kts | 259° |
| 2026-04-30 18:13 | 51.66193 | 0.36270 | 9219 ft | 296 kts | 259° |
| 2026-04-30 18:13 | 51.65551 | 0.27598 | 8203 ft | 288 kts | 259° |
| 2026-04-30 18:14 | 51.64996 | 0.20195 | 8213 ft | 274 kts | 259° |
| 2026-04-30 18:15 | 51.64392 | 0.11266 | 8217 ft | 271 kts | 261° |
| 2026-04-30 18:15 | 51.63854 | 0.01661 | 8219 ft | 292 kts | 261° |
| 2026-04-30 18:16 | 51.63494 | -0.04846 | 8259 ft | 292 kts | 261° |
| 2026-04-30 18:16 | 51.63133 | -0.11359 | 8264 ft | 292 kts | 261° |
| 2026-04-30 18:17 | 51.62952 | -0.14555 | 8158 ft | 290 kts | 261° |
| 2026-04-30 18:17 | 51.62769 | -0.17811 | 7827 ft | 289 kts | 261° |
| 2026-04-30 18:17 | 51.62404 | -0.24223 | 7288 ft | 285 kts | 262° |
| 2026-04-30 18:18 | 51.62219 | -0.27384 | 7277 ft | 280 kts | 261° |
| 2026-04-30 18:18 | 51.62050 | -0.30451 | 7270 ft | 279 kts | 261° |
| 2026-04-30 18:18 | 51.61872 | -0.33615 | 7193 ft | 285 kts | 261° |
| 2026-04-30 18:18 | 51.61691 | -0.36797 | 7184 ft | 286 kts | 261° |
| 2026-04-30 18:19 | 51.61513 | -0.39908 | 7184 ft | 286 kts | 261° |
| 2026-04-30 18:19 | 51.61328 | -0.43171 | 7191 ft | 287 kts | 261° |
| 2026-04-30 18:19 | 51.61140 | -0.46373 | 7196 ft | 286 kts | 261° |
| 2026-04-30 18:19 | 51.60960 | -0.49567 | 7195 ft | 287 kts | 261° |
| 2026-04-30 18:20 | 51.60778 | -0.52760 | 7194 ft | 287 kts | 261° |
| 2026-04-30 18:20 | 51.60597 | -0.55958 | 7196 ft | 287 kts | 261° |
| 2026-04-30 18:20 | 51.60292 | -0.59095 | 6968 ft | 282 kts | 252° |
| 2026-04-30 18:20 | 51.59806 | -0.62132 | 6636 ft | 280 kts | 251° |
| 2026-04-30 18:21 | 51.59295 | -0.65157 | 6295 ft | 279 kts | 251° |
| 2026-04-30 18:21 | 51.58960 | -0.67141 | 6085 ft | 278 kts | 251° |
| 2026-04-30 18:21 | 51.58461 | -0.70130 | 5785 ft | 276 kts | 251° |
| 2026-04-30 18:21 | 51.57969 | -0.73098 | 5503 ft | 273 kts | 251° |
| 2026-04-30 18:22 | 51.57487 | -0.76034 | 5197 ft | 272 kts | 251° |
| 2026-04-30 18:22 | 51.56545 | -0.81840 | 4628 ft | 267 kts | 251° |
| 2026-04-30 18:22 | 51.56087 | -0.84702 | 4499 ft | 259 kts | 251° |
| 2026-04-30 18:23 | 51.55545 | -0.87343 | 4358 ft | 236 kts | 233° |
| 2026-04-30 18:23 | 51.54459 | -0.89033 | 4251 ft | 209 kts | 200° |
| 2026-04-30 18:23 | 51.53110 | -0.89579 | 4120 ft | 195 kts | 183° |
| 2026-04-30 18:23 | 51.51787 | -0.89733 | 3984 ft | 184 kts | 169° |
| 2026-04-30 18:24 | 51.50044 | -0.87336 | 3640 ft | 169 kts | 123° |
| 2026-04-30 18:24 | 51.49468 | -0.85701 | 3390 ft | 167 kts | 121° |
| 2026-04-30 18:24 | 51.48908 | -0.84083 | 3164 ft | 165 kts | 121° |
| 2026-04-30 18:25 | 51.48345 | -0.82475 | 3014 ft | 165 kts | 121° |
| 2026-04-30 18:25 | 51.47576 | -0.79001 | 3007 ft | 173 kts | 94° |
| 2026-04-30 18:25 | 51.47592 | -0.77072 | 3005 ft | 173 kts | 94° |
| 2026-04-30 18:26 | 51.47621 | -0.73218 | 2986 ft | 172 kts | 94° |
| 2026-04-30 18:26 | 51.47633 | -0.71302 | 2850 ft | 171 kts | 94° |
| 2026-04-30 18:26 | 51.47644 | -0.69398 | 2650 ft | 171 kts | 94° |
| 2026-04-30 18:27 | 51.47666 | -0.65626 | 2212 ft | 168 kts | 92° |
| 2026-04-30 18:27 | 51.47676 | -0.63764 | 1983 ft | 164 kts | 92° |
| 2026-04-30 18:28 | 51.47696 | -0.60245 | 1552 ft | 151 kts | 92° |
| 2026-04-30 18:28 | 51.47703 | -0.58571 | 1360 ft | 146 kts | 91° |
| 2026-04-30 18:28 | 51.47718 | -0.55554 | 1002 ft | 129 kts | 92° |
| 2026-04-30 18:29 | 51.47727 | -0.54087 | 820 ft | 131 kts | 90° |
| 2026-04-30 18:29 | 51.47744 | -0.49758 | 266 ft | 129 kts | 88° |
| 2026-04-30 18:30 | 51.47755 | -0.47024 | 91 ft | 96 kts | 90° |
| 2026-04-30 18:30 | 51.47758 | -0.45809 | 86 ft | 37 kts | 90° |
| 2026-04-30 18:31 | 51.47731 | -0.45491 | 87 ft | 20 kts | 145° |
| 2026-04-30 18:31 | 51.47646 | -0.45468 | 86 ft | 0 kts | 181° |
| 2026-04-30 18:32 | 51.47596 | -0.45587 | 87 ft | 19 kts | 269° |
| 2026-04-30 18:32 | 51.47598 | -0.45856 | 86 ft | 29 kts | 272° |
| 2026-04-30 18:32 | 51.47594 | -0.46336 | 90 ft | 26 kts | 269° |
| 2026-04-30 18:33 | 51.47594 | -0.46643 | 86 ft | 29 kts | 270° |
| 2026-04-30 18:33 | 51.47513 | -0.46920 | 90 ft | 13 kts | 165° |
| 2026-04-30 18:33 | 51.47407 | -0.46881 | 87 ft | 17 kts | 167° |
| 2026-04-30 18:34 | 51.47278 | -0.46866 | 86 ft | 19 kts | 180° |
| 2026-04-30 18:34 | 51.46981 | -0.46864 | 86 ft | 19 kts | 181° |
| 2026-04-30 18:34 | 51.46906 | -0.46863 | 88 ft | 1 kts | 180° |
| 2026-04-30 18:35 | 51.46867 | -0.46863 | 87 ft | 10 kts | 179° |
| 2026-04-30 18:35 | 51.46813 | -0.46862 | 88 ft | 0 kts | 180° |
| 2026-04-30 18:35 | 51.46811 | -0.46862 | 88 ft | 0 kts | 180° |
| 2026-04-30 18:36 | 51.46801 | -0.46862 | 89 ft | 6 kts | 180° |
| 2026-04-30 18:36 | 51.46747 | -0.46698 | 90 ft | 13 kts | 90° |
| 2026-04-30 18:37 | 51.46748 | -0.46534 | 86 ft | 15 kts | 90° |
| 2026-04-30 18:37 | 51.46747 | -0.46382 | 89 ft | 14 kts | 91° |
| 2026-04-30 18:37 | 51.46747 | -0.46211 | 88 ft | 17 kts | 90° |
| 2026-04-30 18:37 | 51.46748 | -0.46020 | 86 ft | 13 kts | 84° |
| 2026-04-30 18:38 | 51.46825 | -0.45989 | 88 ft | 14 kts | 344° |
| 2026-04-30 18:38 | 51.46898 | -0.46050 | 89 ft | 7 kts | 6° |
| 2026-04-30 18:38 | 51.46922 | -0.45997 | 89 ft | 7 kts | 55° |
| 2026-04-30 18:38 | 51.46934 | -0.45969 | 87 ft | 0 kts | 56° |